Time;durP1;ratioP1;P1;durP2;ratioP2;P2;SDS_P1;SDS_P2;PMS_P1;PMS_P2;Temp;Humidity;BMP_temperature;BMP_pressure;BME280_temperature;BME280_humidity;BME280_pressure;Samples;Min_cycle;Max_cycle;Signal;HPM_P1;HPM_P2
2023/08/01 00:00:35;;;;;;;2.13;1.63;;;;;23.20;98822.00;;;;2071676;28;20253;-70
2023/08/01 00:01:36;;;;;;;1.80;1.40;;;;;23.20;98829.00;;;;2071621;28;20222;-70
2023/08/01 00:02:36;;;;;;;2.17;1.80;;;;;23.20;98831.00;;;;2056487;28;20245;-70
2023/08/01 00:03:37;;;;;;;1.63;1.40;;;;;23.20;98826.00;;;;2071888;28;20214;-70
2023/08/01 00:04:37;;;;;;;2.87;2.17;;;;;23.20;98820.00;;;;2070798;28;20477;-70
2023/08/01 00:05:38;;;;;;;3.00;1.57;;;;;23.20;98810.00;;;;2071552;28;20226;-70
2023/08/01 00:06:38;;;;;;;1.50;1.30;;;;;23.20;98812.00;;;;2070130;28;20230;-70
2023/08/01 00:07:39;;;;;;;1.93;1.73;;;;;23.20;98814.00;;;;2059207;28;20226;-70
2023/08/01 00:08:39;;;;;;;1.77;1.40;;;;;23.20;98800.00;;;;2071217;28;20237;-70
2023/08/01 00:09:39;;;;;;;1.60;1.27;;;;;23.20;98792.00;;;;2070758;28;20243;-70
2023/08/01 00:10:43;;;;;;;1.53;1.33;;;;;23.20;98783.00;;;;2071249;28;20214;-70
2023/08/01 00:11:43;;;;;;;1.73;1.48;;;;;23.20;98788.00;;;;2071289;28;20221;-70
2023/08/01 00:12:43;;;;;;;2.03;1.43;;;;;23.20;98796.00;;;;2061712;28;20225;-69
2023/08/01 00:13:44;;;;;;;1.87;1.53;;;;;23.20;98788.00;;;;2069145;28;20218;-69
2023/08/01 00:14:44;;;;;;;2.00;1.50;;;;;23.20;98799.00;;;;2071571;28;20515;-69
2023/08/01 00:15:44;;;;;;;1.87;1.37;;;;;23.20;98800.00;;;;2069758;28;20222;-69
2023/08/01 00:16:45;;;;;;;1.87;1.47;;;;;23.20;98806.00;;;;2069951;28;20303;-69
2023/08/01 00:17:45;;;;;;;2.00;1.30;;;;;23.20;98782.00;;;;2062031;28;20207;-69
2023/08/01 00:18:45;;;;;;;1.93;1.27;;;;;23.20;98803.00;;;;2070539;28;20315;-69
2023/08/01 00:19:46;;;;;;;2.00;1.53;;;;;23.20;98805.00;;;;2068905;28;20218;-69
2023/08/01 00:20:46;;;;;;;2.00;1.40;;;;;23.20;98814.00;;;;2069683;28;20331;-69
2023/08/01 00:21:46;;;;;;;2.33;1.73;;;;;23.20;98811.00;;;;2071837;28;20218;-69
2023/08/01 00:22:47;;;;;;;1.93;1.37;;;;;23.20;98810.00;;;;2062265;28;20213;-69
2023/08/01 00:23:48;;;;;;;2.40;1.50;;;;;23.20;98791.00;;;;2070701;28;20245;-69
2023/08/01 00:24:48;;;;;;;1.83;1.40;;;;;23.20;98808.00;;;;2071674;28;20461;-69
2023/08/01 00:25:51;;;;;;;2.03;1.53;;;;;23.20;98800.00;;;;2070799;28;20225;-69
2023/08/01 00:26:54;;;;;;;2.38;1.45;;;;;23.20;98791.00;;;;2064666;28;20218;-69
2023/08/01 00:27:55;;;;;;;2.75;1.40;;;;;23.20;98776.00;;;;2060282;28;20309;-69
2023/08/01 00:28:55;;;;;;;2.10;1.60;;;;;23.20;98795.00;;;;2071425;28;20289;-69
2023/08/01 00:29:56;;;;;;;1.43;1.07;;;;;23.20;98788.00;;;;2069786;28;20238;-69
2023/08/01 00:31:06;;;;;;;1.90;1.20;;;;;23.20;98792.00;;;;2070734;28;20237;-69
2023/08/01 00:32:07;;;;;;;1.77;1.40;;;;;23.20;98788.00;;;;2071158;28;20634;-69
2023/08/01 00:33:07;;;;;;;1.47;1.07;;;;;23.20;98787.00;;;;2059491;28;20206;-69
2023/08/01 00:34:07;;;;;;;1.70;1.30;;;;;23.20;98787.00;;;;2073570;28;20222;-69
2023/08/01 00:35:08;;;;;;;3.73;1.27;;;;;23.20;98779.00;;;;2073901;28;20230;-69
2023/08/01 00:36:10;;;;;;;2.20;1.40;;;;;23.20;98785.00;;;;2067434;28;20732;-70
2023/08/01 00:37:11;;;;;;;6.47;1.20;;;;;23.20;98786.00;;;;2061259;28;20210;-70
2023/08/01 00:38:11;;;;;;;2.50;1.20;;;;;23.20;98769.00;;;;2070525;28;20260;-70
2023/08/01 00:39:11;;;;;;;1.77;1.20;;;;;23.20;98779.00;;;;2070529;28;20210;-70
2023/08/01 00:40:12;;;;;;;1.93;1.37;;;;;23.20;98770.00;;;;2066733;28;20248;-70
2023/08/01 00:41:12;;;;;;;1.77;1.20;;;;;23.20;98758.00;;;;2070802;28;20273;-70
2023/08/01 00:42:13;;;;;;;2.00;1.33;;;;;23.20;98758.00;;;;2061374;28;20210;-70
2023/08/01 00:43:13;;;;;;;1.20;1.10;;;;;23.20;98758.00;;;;2071547;28;20233;-70
2023/08/01 00:44:14;;;;;;;1.20;0.90;;;;;23.20;98759.00;;;;2069188;28;20256;-70
2023/08/01 00:45:14;;;;;;;1.57;1.23;;;;;23.20;98766.00;;;;2071077;28;20225;-70
2023/08/01 00:46:14;;;;;;;1.53;1.13;;;;;23.20;98767.00;;;;2071341;28;20369;-70
2023/08/01 00:47:15;;;;;;;2.37;1.13;;;;;23.20;98765.00;;;;2060654;28;20218;-70
2023/08/01 00:48:15;;;;;;;1.33;1.10;;;;;23.20;98767.00;;;;2069764;28;20280;-70
2023/08/01 00:49:15;;;;;;;1.53;1.10;;;;;23.20;98774.00;;;;2070720;28;20305;-70
2023/08/01 00:50:16;;;;;;;2.40;1.17;;;;;23.20;98762.00;;;;2071318;28;20213;-70
2023/08/01 00:51:17;;;;;;;2.27;1.03;;;;;23.20;98765.00;;;;2071412;28;20247;-70
2023/08/01 00:52:18;;;;;;;1.73;1.30;;;;;23.20;98763.00;;;;2065809;28;20666;-70
2023/08/01 00:53:18;;;;;;;2.00;1.20;;;;;23.10;98759.00;;;;2060690;28;20215;-70
2023/08/01 00:54:18;;;;;;;1.57;0.97;;;;;23.20;98757.00;;;;2062250;28;20214;-70
2023/08/01 00:55:19;;;;;;;5.13;1.03;;;;;23.20;98757.00;;;;2071446;28;20214;-70
2023/08/01 00:56:19;;;;;;;1.40;0.90;;;;;23.20;98760.00;;;;2070275;28;20233;-70
2023/08/01 00:57:19;;;;;;;2.30;1.30;;;;;23.20;98758.00;;;;2061974;28;20218;-70
2023/08/01 00:58:20;;;;;;;1.70;1.27;;;;;23.20;98758.00;;;;2069989;28;20712;-70
2023/08/01 00:59:20;;;;;;;1.80;1.20;;;;;23.10;98755.00;;;;2069683;28;20713;-70
2023/08/01 01:00:21;;;;;;;3.30;1.27;;;;;23.10;98754.00;;;;2071377;28;20225;-70
2023/08/01 01:01:21;;;;;;;1.33;1.00;;;;;23.10;98746.00;;;;2070178;28;20214;-70
2023/08/01 01:02:21;;;;;;;1.40;0.80;;;;;23.20;98744.00;;;;2061724;28;20301;-70
2023/08/01 01:03:22;;;;;;;1.50;1.07;;;;;23.20;98746.00;;;;2070532;28;20218;-70
2023/08/01 01:04:22;;;;;;;1.50;1.10;;;;;23.20;98744.00;;;;2068915;28;20225;-70
2023/08/01 01:05:22;;;;;;;1.13;1.00;;;;;23.10;98743.00;;;;2069384;28;20222;-70
2023/08/01 01:06:25;;;;;;;2.70;1.00;;;;;23.20;98745.00;;;;2069422;28;20221;-70
2023/08/01 01:07:26;;;;;;;2.28;1.27;;;;;23.10;98736.00;;;;2052639;28;20320;-70
2023/08/01 01:08:26;;;;;;;1.50;1.23;;;;;23.10;98738.00;;;;2069348;28;20272;-70
2023/08/01 01:09:28;;;;;;;2.00;1.00;;;;;23.20;98736.00;;;;2069778;28;20464;-70
2023/08/01 01:10:28;;;;;;;1.60;1.10;;;;;23.20;98739.00;;;;2070653;28;20226;-70
2023/08/01 01:11:29;;;;;;;2.73;1.30;;;;;23.10;98726.00;;;;2069496;28;20690;-70
2023/08/01 01:12:29;;;;;;;1.63;1.30;;;;;23.10;98727.00;;;;2060659;28;20223;-70
2023/08/01 01:13:29;;;;;;;1.30;1.00;;;;;23.10;98731.00;;;;2070911;28;20248;-70
2023/08/01 01:14:29;;;;;;;1.50;1.10;;;;;23.10;98724.00;;;;2069681;28;20250;-70
2023/08/01 01:15:30;;;;;;;1.30;1.00;;;;;23.20;98721.00;;;;2069486;28;20248;-70
2023/08/01 01:16:30;;;;;;;1.77;1.23;;;;;23.20;98723.00;;;;2071248;28;20214;-70
2023/08/01 01:17:31;;;;;;;1.30;0.90;;;;;23.20;98722.00;;;;2060138;28;20237;-70
2023/08/01 01:18:31;;;;;;;2.20;1.37;;;;;23.10;98725.00;;;;2071413;28;20218;-70
2023/08/01 01:19:31;;;;;;;1.50;0.97;;;;;23.10;98718.00;;;;2070619;28;20237;-70
2023/08/01 01:20:35;;;;;;;1.60;1.03;;;;;23.10;98721.00;;;;2071136;28;20731;-70
2023/08/01 01:21:37;;;;;;;1.50;1.00;;;;;23.10;98725.00;;;;2071320;28;20710;-70
2023/08/01 01:22:37;;;;;;;1.70;1.35;;;;;23.10;98729.00;;;;2061503;28;20718;-70
2023/08/01 01:23:38;;;;;;;1.47;0.97;;;;;23.10;98739.00;;;;2062919;28;20219;-70
2023/08/01 01:24:38;;;;;;;1.30;0.90;;;;;23.10;98727.00;;;;2061847;28;20221;-70
2023/08/01 01:25:39;;;;;;;1.50;1.00;;;;;23.20;98725.00;;;;2062454;28;20227;-70
2023/08/01 01:26:40;;;;;;;1.20;1.07;;;;;23.10;98722.00;;;;2065388;28;20222;-70
2023/08/01 01:27:40;;;;;;;1.60;1.10;;;;;23.10;98706.00;;;;2052267;28;20226;-70
2023/08/01 01:28:42;;;;;;;1.53;1.03;;;;;23.10;98727.00;;;;2060457;28;20223;-70
2023/08/01 01:29:42;;;;;;;2.17;1.13;;;;;23.10;98723.00;;;;2054027;28;20254;-70
2023/08/01 01:30:42;;;;;;;1.40;1.00;;;;;23.10;98725.00;;;;2052898;28;20588;-70
2023/08/01 01:31:43;;;;;;;1.50;1.07;;;;;23.10;98724.00;;;;2064759;28;20733;-70
2023/08/01 01:32:43;;;;;;;2.80;1.23;;;;;23.10;98725.00;;;;2052283;28;20726;-70
2023/08/01 01:33:43;;;;;;;1.60;0.93;;;;;23.10;98723.00;;;;2067098;28;20989;-70
2023/08/01 01:34:45;;;;;;;1.37;0.80;;;;;23.10;98723.00;;;;2069729;28;20225;-70
2023/08/01 01:35:45;;;;;;;1.00;0.80;;;;;23.10;98721.00;;;;2068733;28;20770;-70
2023/08/01 01:36:45;;;;;;;1.57;1.00;;;;;23.10;98711.00;;;;2070071;28;20269;-70
2023/08/01 01:37:46;;;;;;;1.47;1.00;;;;;23.10;98711.00;;;;2061224;28;20305;-70
2023/08/01 01:38:46;;;;;;;1.20;0.90;;;;;23.10;98708.00;;;;2069156;28;20272;-70
2023/08/01 01:39:46;;;;;;;2.60;1.10;;;;;23.10;98711.00;;;;2070957;28;20218;-70
2023/08/01 01:40:47;;;;;;;1.20;0.93;;;;;23.10;98690.00;;;;2070400;28;21048;-70
2023/08/01 01:41:47;;;;;;;1.57;0.90;;;;;23.10;98699.00;;;;2069964;28;20769;-70
2023/08/01 01:42:49;;;;;;;1.40;1.00;;;;;23.10;98687.00;;;;2060888;28;20729;-70
2023/08/01 01:43:49;;;;;;;1.48;1.20;;;;;23.10;98684.00;;;;2070518;28;20218;-70
2023/08/01 01:44:49;;;;;;;1.40;1.13;;;;;23.10;98681.00;;;;2071157;28;20222;-70
2023/08/01 01:45:50;;;;;;;1.83;0.90;;;;;23.10;98687.00;;;;2070678;28;20225;-70
2023/08/01 01:46:50;;;;;;;1.23;1.00;;;;;23.10;98687.00;;;;2069499;28;20300;-70
2023/08/01 01:47:50;;;;;;;4.03;1.20;;;;;23.10;98681.00;;;;2059881;28;20244;-70
2023/08/01 01:48:51;;;;;;;1.70;1.03;;;;;23.10;98679.00;;;;2069003;28;20218;-70
2023/08/01 01:49:51;;;;;;;1.20;1.00;;;;;23.10;98683.00;;;;2071003;28;20241;-70
2023/08/01 01:50:51;;;;;;;1.40;0.80;;;;;23.10;98689.00;;;;2067594;28;20337;-70
2023/08/01 01:51:52;;;;;;;1.40;0.97;;;;;23.10;98681.00;;;;2070815;28;20214;-70
2023/08/01 01:52:52;;;;;;;1.70;1.10;;;;;23.10;98680.00;;;;2059405;28;20218;-70
2023/08/01 01:53:52;;;;;;;1.30;1.03;;;;;23.10;98686.00;;;;2070471;28;20220;-70
2023/08/01 01:54:53;;;;;;;1.60;0.87;;;;;23.10;98668.00;;;;2070249;28;20236;-70
2023/08/01 01:55:53;;;;;;;1.37;1.00;;;;;23.10;98697.00;;;;2067805;28;20222;-70
2023/08/01 01:56:53;;;;;;;1.80;1.00;;;;;23.10;98699.00;;;;2070574;28;20214;-70
2023/08/01 01:57:54;;;;;;;1.90;0.97;;;;;23.10;98701.00;;;;2060497;28;20269;-70
2023/08/01 01:58:54;;;;;;;1.57;0.93;;;;;23.10;98695.00;;;;2070982;28;20221;-70
2023/08/01 01:59:54;;;;;;;1.20;0.90;;;;;23.10;98693.00;;;;2070234;28;20233;-70
2023/08/01 02:00:54;;;;;;;1.10;0.80;;;;;23.10;98695.00;;;;2070975;28;20217;-70
2023/08/01 02:01:55;;;;;;;1.27;0.80;;;;;23.10;98689.00;;;;2065631;28;20237;-70
2023/08/01 02:02:55;;;;;;;1.27;0.80;;;;;23.10;98694.00;;;;2059717;28;20245;-70
2023/08/01 02:03:55;;;;;;;1.40;0.97;;;;;23.10;98697.00;;;;2070781;28;20254;-70
2023/08/01 02:04:56;;;;;;;1.30;1.10;;;;;23.10;98696.00;;;;2070357;28;20214;-70
2023/08/01 02:05:56;;;;;;;1.00;0.77;;;;;23.10;98689.00;;;;2069649;28;20229;-70
2023/08/01 02:06:57;;;;;;;1.23;0.80;;;;;23.10;98689.00;;;;2066373;28;20289;-70
2023/08/01 02:07:57;;;;;;;1.00;0.80;;;;;23.10;98691.00;;;;2057924;28;20225;-70
2023/08/01 02:08:57;;;;;;;1.73;1.10;;;;;23.10;98698.00;;;;2065185;28;20218;-70
2023/08/01 02:09:58;;;;;;;1.40;1.13;;;;;23.10;98693.00;;;;2070762;28;20237;-70
2023/08/01 02:10:58;;;;;;;1.30;1.10;;;;;23.10;98696.00;;;;2070777;28;20228;-70
2023/08/01 02:11:58;;;;;;;1.10;0.97;;;;;23.10;98693.00;;;;2070178;28;20218;-70
2023/08/01 02:12:59;;;;;;;1.00;0.73;;;;;23.10;98702.00;;;;2061450;28;20210;-70
2023/08/01 02:13:59;;;;;;;1.53;1.00;;;;;23.10;98706.00;;;;2069866;28;20218;-70
2023/08/01 02:14:59;;;;;;;1.43;1.00;;;;;23.10;98698.00;;;;2067707;28;20240;-70
2023/08/01 02:16:00;;;;;;;0.70;0.60;;;;;23.10;98703.00;;;;2070108;28;20237;-70
2023/08/01 02:17:00;;;;;;;1.47;0.83;;;;;23.10;98698.00;;;;2070373;28;20249;-70
2023/08/01 02:18:01;;;;;;;1.20;0.87;;;;;23.10;98702.00;;;;2060850;28;20260;-70
2023/08/01 02:19:01;;;;;;;1.47;0.90;;;;;23.10;98698.00;;;;2070103;28;20205;-70
2023/08/01 02:20:01;;;;;;;1.10;0.90;;;;;23.10;98699.00;;;;2070954;28;20210;-70
2023/08/01 02:21:01;;;;;;;1.53;0.90;;;;;23.10;98691.00;;;;2070015;28;20246;-70
2023/08/01 02:22:02;;;;;;;2.07;0.90;;;;;23.10;98696.00;;;;2069235;28;20648;-70
2023/08/01 02:23:02;;;;;;;0.80;0.70;;;;;23.10;98699.00;;;;2060615;28;20214;-70
2023/08/01 02:24:03;;;;;;;1.20;0.87;;;;;23.10;98696.00;;;;2070298;28;20206;-70
2023/08/01 02:25:03;;;;;;;1.20;0.90;;;;;23.10;98694.00;;;;2070884;28;20210;-70
2023/08/01 02:26:04;;;;;;;1.70;0.87;;;;;23.20;98697.00;;;;2070465;28;20225;-70
2023/08/01 02:27:04;;;;;;;1.80;0.90;;;;;23.10;98686.00;;;;2070661;28;20641;-70
2023/08/01 02:28:05;;;;;;;1.50;0.80;;;;;23.10;98690.00;;;;2060756;28;20229;-69
2023/08/01 02:29:05;;;;;;;1.90;0.97;;;;;23.10;98696.00;;;;2071323;28;20210;-69
2023/08/01 02:30:06;;;;;;;1.20;0.90;;;;;23.10;98695.00;;;;2069940;28;20613;-69
2023/08/01 02:31:06;;;;;;;2.00;0.77;;;;;23.10;98695.00;;;;2070518;28;20698;-69
2023/08/01 02:32:07;;;;;;;2.50;1.17;;;;;23.10;98689.00;;;;2067254;28;20473;-69
2023/08/01 02:33:07;;;;;;;1.27;0.97;;;;;23.10;98692.00;;;;2061346;28;20214;-69
2023/08/01 02:34:07;;;;;;;2.37;1.10;;;;;23.10;98697.00;;;;2071363;28;20202;-69
2023/08/01 02:35:08;;;;;;;1.97;1.10;;;;;23.10;98691.00;;;;2066387;28;20207;-69
2023/08/01 02:36:08;;;;;;;1.30;0.80;;;;;23.10;98684.00;;;;2071008;28;20736;-69
2023/08/01 02:37:09;;;;;;;1.97;1.10;;;;;23.10;98686.00;;;;2068124;28;20267;-69
2023/08/01 02:38:09;;;;;;;1.23;0.97;;;;;23.10;98683.00;;;;2065777;28;20836;-69
2023/08/01 02:39:09;;;;;;;1.20;0.97;;;;;23.10;98680.00;;;;2068212;28;20549;-69
2023/08/01 02:40:10;;;;;;;1.37;0.83;;;;;23.10;98676.00;;;;2070350;28;20210;-69
2023/08/01 02:41:11;;;;;;;1.00;0.90;;;;;23.10;98683.00;;;;2070237;28;20211;-69
2023/08/01 02:42:11;;;;;;;1.80;1.20;;;;;23.10;98684.00;;;;2059797;28;20210;-69
2023/08/01 02:43:11;;;;;;;1.17;1.03;;;;;23.10;98688.00;;;;2070532;28;20213;-69
2023/08/01 02:44:12;;;;;;;2.10;0.93;;;;;23.10;98679.00;;;;2070476;28;20214;-70
2023/08/01 02:45:13;;;;;;;1.20;0.85;;;;;23.10;98692.00;;;;2071131;28;20206;-70
2023/08/01 02:46:13;;;;;;;1.90;1.03;;;;;23.10;98689.00;;;;2070286;28;20213;-70
2023/08/01 02:47:13;;;;;;;1.97;0.87;;;;;23.10;98682.00;;;;2060769;28;20218;-70
2023/08/01 02:48:14;;;;;;;1.87;1.00;;;;;23.10;98690.00;;;;2072117;28;20212;-70
2023/08/01 02:49:14;;;;;;;1.40;0.80;;;;;23.10;98691.00;;;;2071169;28;20207;-70
2023/08/01 02:50:14;;;;;;;1.10;1.00;;;;;23.10;98699.00;;;;2070297;28;20390;-70
2023/08/01 02:51:15;;;;;;;1.90;1.10;;;;;23.10;98699.00;;;;2069257;28;20222;-70
2023/08/01 02:52:15;;;;;;;1.33;1.10;;;;;23.10;98699.00;;;;2061641;28;20206;-70
2023/08/01 02:53:15;;;;;;;1.50;1.20;;;;;23.10;98705.00;;;;2067150;28;20649;-70
2023/08/01 02:54:16;;;;;;;2.50;1.17;;;;;23.10;98703.00;;;;2072921;28;20578;-70
2023/08/01 02:55:16;;;;;;;1.90;1.30;;;;;23.10;98700.00;;;;2077544;28;20665;-70
2023/08/01 02:56:16;;;;;;;1.27;0.90;;;;;23.10;98699.00;;;;2069025;28;20722;-70
2023/08/01 02:57:17;;;;;;;1.20;1.10;;;;;23.10;98686.00;;;;2060575;28;20289;-70
2023/08/01 02:58:17;;;;;;;2.13;1.37;;;;;23.10;98694.00;;;;2069192;28;20214;-70
2023/08/01 02:59:20;;;;;;;1.67;0.97;;;;;23.10;98696.00;;;;2071106;28;20261;-70
2023/08/01 03:00:20;;;;;;;1.25;1.00;;;;;23.10;98702.00;;;;2072491;28;20677;-70
2023/08/01 03:01:21;;;;;;;1.83;1.10;;;;;23.10;98689.00;;;;2072070;28;20207;-70
2023/08/01 03:02:21;;;;;;;1.13;0.93;;;;;23.10;98695.00;;;;2063127;28;20245;-70
2023/08/01 03:03:22;;;;;;;2.73;1.20;;;;;23.10;98703.00;;;;2071907;28;20220;-70
2023/08/01 03:04:22;;;;;;;2.17;1.20;;;;;23.10;98707.00;;;;2069727;28;20210;-70
2023/08/01 03:05:22;;;;;;;1.53;0.90;;;;;23.10;98701.00;;;;2068753;28;20218;-70
2023/08/01 03:06:23;;;;;;;1.93;1.10;;;;;23.10;98696.00;;;;2072640;28;20353;-70
2023/08/01 03:07:23;;;;;;;1.70;1.10;;;;;23.10;98701.00;;;;2061024;28;20214;-70
2023/08/01 03:08:23;;;;;;;1.83;1.10;;;;;23.10;98694.00;;;;2070786;28;24425;-70
2023/08/01 03:09:23;;;;;;;1.33;0.93;;;;;23.10;98706.00;;;;2073614;28;21075;-70
2023/08/01 03:10:24;;;;;;;1.30;1.10;;;;;23.10;98707.00;;;;2073832;28;20723;-70
2023/08/01 03:11:24;;;;;;;1.40;1.03;;;;;23.10;98706.00;;;;2072481;28;20219;-70
2023/08/01 03:12:25;;;;;;;1.20;1.10;;;;;23.10;98707.00;;;;2061114;28;20307;-70
2023/08/01 03:13:25;;;;;;;1.20;0.97;;;;;23.10;98707.00;;;;2072538;28;20751;-70
2023/08/01 03:14:25;;;;;;;2.60;1.17;;;;;23.10;98712.00;;;;2072334;28;20214;-69
2023/08/01 03:15:27;;;;;;;1.33;1.10;;;;;23.10;98712.00;;;;2071815;28;20248;-69
2023/08/01 03:16:27;;;;;;;1.30;1.08;;;;;23.10;98715.00;;;;2070527;28;20211;-69
2023/08/01 03:17:27;;;;;;;2.03;1.13;;;;;23.10;98711.00;;;;2059606;28;20766;-69
2023/08/01 03:18:28;;;;;;;1.40;1.10;;;;;23.10;98719.00;;;;2071811;28;20717;-69
2023/08/01 03:19:28;;;;;;;1.43;1.17;;;;;23.10;98718.00;;;;2070936;28;20268;-69
2023/08/01 03:20:28;;;;;;;2.07;1.10;;;;;23.10;98713.00;;;;2072457;28;20708;-69
2023/08/01 03:21:28;;;;;;;2.20;1.40;;;;;23.10;98709.00;;;;2072247;28;20250;-69
2023/08/01 03:22:29;;;;;;;1.20;1.10;;;;;23.10;98702.00;;;;2060450;28;20226;-69
2023/08/01 03:23:29;;;;;;;2.13;1.47;;;;;23.10;98715.00;;;;2071761;28;20222;-70
2023/08/01 03:24:30;;;;;;;1.30;1.10;;;;;23.10;98714.00;;;;2074258;28;20285;-70
2023/08/01 03:25:30;;;;;;;1.40;1.20;;;;;23.10;98709.00;;;;2073767;28;20281;-70
2023/08/01 03:26:30;;;;;;;1.50;1.30;;;;;23.10;98716.00;;;;2064293;28;20258;-70
2023/08/01 03:27:31;;;;;;;2.70;1.77;;;;;23.10;98712.00;;;;2064614;28;20252;-70
2023/08/01 03:28:31;;;;;;;1.40;1.20;;;;;23.10;98715.00;;;;2076166;28;20605;-70
2023/08/01 03:29:31;;;;;;;1.40;1.13;;;;;23.00;98726.00;;;;2071981;28;20698;-69
2023/08/01 03:30:32;;;;;;;1.50;1.30;;;;;23.10;98717.00;;;;2069890;28;20622;-69
2023/08/01 03:31:33;;;;;;;1.67;1.50;;;;;23.10;98724.00;;;;2070795;28;20223;-69
2023/08/01 03:32:33;;;;;;;1.33;1.10;;;;;23.00;98726.00;;;;2056223;28;20230;-69
2023/08/01 03:33:34;;;;;;;2.77;1.30;;;;;23.00;98717.00;;;;2073591;28;20250;-69
2023/08/01 03:34:34;;;;;;;1.50;1.40;;;;;23.00;98730.00;;;;2067736;28;20307;-69
2023/08/01 03:35:34;;;;;;;1.60;1.13;;;;;23.10;98727.00;;;;2071173;28;20222;-69
2023/08/01 03:36:35;;;;;;;2.40;1.60;;;;;23.10;98722.00;;;;2067752;28;20241;-69
2023/08/01 03:37:35;;;;;;;2.37;1.13;;;;;23.10;98730.00;;;;2062209;28;20224;-69
2023/08/01 03:38:35;;;;;;;1.63;1.33;;;;;23.10;98727.00;;;;2071796;28;20349;-69
2023/08/01 03:39:36;;;;;;;1.60;1.50;;;;;23.10;98736.00;;;;2067768;28;20262;-69
2023/08/01 03:40:36;;;;;;;3.73;1.73;;;;;23.00;98730.00;;;;2069988;28;20222;-69
2023/08/01 03:41:37;;;;;;;1.97;1.40;;;;;23.00;98738.00;;;;2071756;28;20265;-69
2023/08/01 03:42:37;;;;;;;1.50;1.40;;;;;23.10;98736.00;;;;2058855;28;20308;-69
2023/08/01 03:43:37;;;;;;;2.27;1.80;;;;;23.00;98739.00;;;;2072185;28;20706;-69
2023/08/01 03:44:38;;;;;;;3.30;1.70;;;;;23.00;98740.00;;;;2072327;28;20645;-69
2023/08/01 03:45:39;;;;;;;1.90;1.73;;;;;23.10;98741.00;;;;2071614;28;20242;-69
2023/08/01 03:46:40;;;;;;;2.10;1.87;;;;;23.00;98747.00;;;;2072192;28;20272;-69
2023/08/01 03:47:40;;;;;;;2.42;1.80;;;;;23.10;98750.00;;;;2065167;28;20976;-69
2023/08/01 03:48:40;;;;;;;2.07;1.57;;;;;23.10;98737.00;;;;2081536;28;20213;-70
2023/08/01 03:49:41;;;;;;;2.63;2.10;;;;;23.10;98743.00;;;;2077727;28;20225;-70
2023/08/01 03:50:41;;;;;;;2.53;1.70;;;;;23.00;98748.00;;;;2070823;28;20673;-70
2023/08/01 03:51:41;;;;;;;2.00;1.80;;;;;23.10;98744.00;;;;2068502;28;20235;-70
2023/08/01 03:52:42;;;;;;;2.60;1.80;;;;;23.00;98750.00;;;;2059483;28;20218;-70
2023/08/01 03:53:42;;;;;;;2.70;2.20;;;;;23.10;98751.00;;;;2071769;28;20226;-70
2023/08/01 03:54:42;;;;;;;2.20;1.90;;;;;23.00;98754.00;;;;2071157;28;20381;-70
2023/08/01 03:55:44;;;;;;;2.40;1.73;;;;;23.00;98754.00;;;;2070983;28;20650;-70
2023/08/01 03:56:45;;;;;;;1.90;1.70;;;;;23.00;98743.00;;;;2071176;28;20214;-70
2023/08/01 03:57:46;;;;;;;6.30;2.25;;;;;23.10;98756.00;;;;2062367;28;20757;-70
2023/08/01 03:58:46;;;;;;;2.87;2.07;;;;;23.00;98743.00;;;;2072065;28;20218;-70
2023/08/01 03:59:46;;;;;;;2.43;2.03;;;;;23.10;98743.00;;;;2068021;28;20661;-70
2023/08/01 04:00:47;;;;;;;3.30;1.57;;;;;23.00;98746.00;;;;2067141;28;20640;-70
2023/08/01 04:01:47;;;;;;;3.63;2.33;;;;;23.10;98749.00;;;;2073697;28;20628;-70
2023/08/01 04:02:48;;;;;;;1.80;1.70;;;;;23.10;98751.00;;;;2063857;28;20233;-70
2023/08/01 04:03:48;;;;;;;3.93;2.17;;;;;23.00;98749.00;;;;2071620;28;20300;-70
2023/08/01 04:04:48;;;;;;;3.20;2.20;;;;;23.00;98752.00;;;;2071158;28;20706;-70
2023/08/01 04:05:48;;;;;;;2.87;2.60;;;;;23.10;98755.00;;;;2071488;28;20808;-70
2023/08/01 04:06:49;;;;;;;2.30;1.83;;;;;23.10;98755.00;;;;2070814;28;20632;-70
2023/08/01 04:07:49;;;;;;;4.27;2.53;;;;;23.10;98751.00;;;;2062327;28;20702;-70
2023/08/01 04:08:49;;;;;;;2.40;2.20;;;;;23.10;98754.00;;;;2070829;28;20776;-70
2023/08/01 04:09:50;;;;;;;2.43;2.00;;;;;23.00;98756.00;;;;2068254;28;20702;-70
2023/08/01 04:10:50;;;;;;;2.70;1.90;;;;;23.00;98763.00;;;;2071603;28;20753;-70
2023/08/01 04:11:51;;;;;;;2.40;1.87;;;;;23.00;98760.00;;;;2070351;28;20563;-70
2023/08/01 04:12:51;;;;;;;3.47;2.53;;;;;23.00;98763.00;;;;2060219;28;20713;-70
2023/08/01 04:13:51;;;;;;;2.03;1.83;;;;;23.00;98757.00;;;;2070406;28;20666;-70
2023/08/01 04:14:51;;;;;;;2.63;2.00;;;;;23.10;98760.00;;;;2071525;28;20679;-70
2023/08/01 04:15:52;;;;;;;3.83;2.27;;;;;23.00;98761.00;;;;2070715;28;20252;-70
2023/08/01 04:16:52;;;;;;;2.77;1.90;;;;;23.00;98765.00;;;;2071297;28;20926;-70
2023/08/01 04:17:52;;;;;;;2.80;2.07;;;;;23.00;98766.00;;;;2071850;28;20716;-70
2023/08/01 04:18:53;;;;;;;3.00;1.97;;;;;23.00;98766.00;;;;2072673;28;20218;-70
2023/08/01 04:19:53;;;;;;;2.03;1.83;;;;;23.00;98775.00;;;;2071330;28;20222;-70
2023/08/01 04:20:53;;;;;;;4.87;2.37;;;;;23.00;98764.00;;;;2071024;28;20275;-70
2023/08/01 04:21:54;;;;;;;3.77;2.40;;;;;23.00;98774.00;;;;2071386;28;20232;-70
2023/08/01 04:22:54;;;;;;;2.97;2.23;;;;;23.00;98766.00;;;;2059347;28;20226;-70
2023/08/01 04:23:54;;;;;;;5.23;2.37;;;;;23.00;98767.00;;;;2072865;28;20283;-70
2023/08/01 04:24:55;;;;;;;5.27;2.10;;;;;23.00;98763.00;;;;2071262;28;20682;-70
2023/08/01 04:25:55;;;;;;;2.80;2.40;;;;;23.00;98765.00;;;;2070894;28;20230;-70
2023/08/01 04:26:55;;;;;;;2.80;2.40;;;;;23.00;98754.00;;;;2071339;28;20817;-70
2023/08/01 04:27:56;;;;;;;2.57;1.93;;;;;23.00;98762.00;;;;2067361;28;20587;-70
2023/08/01 04:28:56;;;;;;;3.00;2.20;;;;;23.00;98761.00;;;;2079075;28;20791;-70
2023/08/01 04:29:56;;;;;;;4.03;2.00;;;;;23.00;98757.00;;;;2078007;28;20217;-70
2023/08/01 04:30:57;;;;;;;3.83;2.30;;;;;23.00;98764.00;;;;2071006;28;20218;-70
2023/08/01 04:31:57;;;;;;;2.70;2.10;;;;;23.00;98758.00;;;;2071363;28;20249;-70
2023/08/01 04:32:57;;;;;;;2.93;2.60;;;;;23.00;98753.00;;;;2060813;28;20220;-70
2023/08/01 04:33:58;;;;;;;3.77;2.30;;;;;23.00;98757.00;;;;2071610;28;20222;-70
2023/08/01 04:34:58;;;;;;;2.27;2.00;;;;;23.00;98757.00;;;;2071006;28;20248;-70
2023/08/01 04:35:58;;;;;;;2.60;2.07;;;;;23.00;98758.00;;;;2071430;28;20210;-70
2023/08/01 04:36:59;;;;;;;2.77;2.47;;;;;23.00;98745.00;;;;2069245;28;20222;-70
2023/08/01 04:37:59;;;;;;;3.90;2.50;;;;;23.00;98759.00;;;;2056871;28;20245;-70
2023/08/01 04:38:59;;;;;;;3.47;2.23;;;;;23.00;98756.00;;;;2068953;28;20226;-70
2023/08/01 04:40:00;;;;;;;3.23;2.23;;;;;23.00;98754.00;;;;2070614;28;20686;-70
2023/08/01 04:41:01;;;;;;;5.63;2.40;;;;;23.00;98759.00;;;;2071688;28;20225;-70
2023/08/01 04:42:02;;;;;;;3.42;2.55;;;;;23.00;98746.00;;;;2068930;28;20272;-70
2023/08/01 04:43:02;;;;;;;3.63;2.10;;;;;23.00;98759.00;;;;2072567;28;20641;-70
2023/08/01 04:44:02;;;;;;;3.30;2.30;;;;;23.00;98750.00;;;;2085282;28;20301;-69
2023/08/01 04:45:03;;;;;;;2.97;2.10;;;;;23.00;98750.00;;;;2071842;28;20685;-69
2023/08/01 04:46:03;;;;;;;3.30;2.10;;;;;23.00;98755.00;;;;2071420;28;20348;-69
2023/08/01 04:47:04;;;;;;;4.70;2.43;;;;;23.00;98761.00;;;;2070486;28;20657;-69
2023/08/01 04:48:04;;;;;;;3.57;2.40;;;;;23.00;98753.00;;;;2071739;28;20605;-69
2023/08/01 04:49:05;;;;;;;2.97;2.17;;;;;23.00;98755.00;;;;2081244;28;20221;-69
2023/08/01 04:50:06;;;;;;;3.23;2.40;;;;;23.00;98756.00;;;;2071999;28;20269;-69
2023/08/01 04:51:06;;;;;;;4.60;2.67;;;;;23.00;98752.00;;;;2071173;28;20316;-69
2023/08/01 04:52:07;;;;;;;2.67;2.20;;;;;23.00;98745.00;;;;2068716;28;20225;-69
2023/08/01 04:53:07;;;;;;;2.67;2.37;;;;;23.00;98747.00;;;;2056183;28;20222;-70
2023/08/01 04:54:08;;;;;;;2.53;2.00;;;;;23.00;98758.00;;;;2069472;28;20306;-69
2023/08/01 04:55:08;;;;;;;3.40;2.77;;;;;23.00;98757.00;;;;2070754;28;20234;-69
2023/08/01 04:56:08;;;;;;;3.50;2.63;;;;;23.00;98761.00;;;;2070491;28;20229;-70
2023/08/01 04:57:09;;;;;;;2.67;2.10;;;;;23.00;98759.00;;;;2071157;28;20225;-70
2023/08/01 04:58:09;;;;;;;3.70;2.47;;;;;23.00;98765.00;;;;2061133;28;20272;-70
2023/08/01 04:59:09;;;;;;;4.63;2.30;;;;;23.00;98763.00;;;;2071278;28;20218;-70
2023/08/01 05:00:10;;;;;;;4.60;3.00;;;;;23.00;98762.00;;;;2065312;28;20654;-70
2023/08/01 05:01:11;;;;;;;3.23;2.50;;;;;23.00;98766.00;;;;2070630;28;20217;-70
2023/08/01 05:02:11;;;;;;;3.20;2.70;;;;;23.00;98773.00;;;;2065347;28;21000;-70
2023/08/01 05:03:11;;;;;;;2.90;2.00;;;;;23.00;98766.00;;;;2059118;28;20605;-70